Airfield :
LOGIN :

Register | Disclaimer

   EN    FR    IT 

 










Legend :    VFR   Marginal VFR   IFR   Intensive IFR   Very Intensive IFR
Visi :
Ceiling :
>= 8 km
>= 3000ft
5 to 8 km
1000 to 3000 ft
1500m to 5 km
500 to 1000 ft
800 to 1500m
200 to 500 ft
< 800m
< 200 ft
Symbols :   Thunderstorms  Fog  Heavy snow  Heavy precipitations  Wind > 20 kt
SIGMETs :     Misc.  Thunderstorms  Icing  Turbulence  Mountain Waves  Volcanic Ashes






- Airport Elevation : 1345 ft
- IATA code : FRZ


ETHF - Fritzlar

CURRENT METAR :
  • 112020Z 17003KT 3500 -SN BR BKN023 00/M00 Q1005 YLO

EXPIRED METARs :
  • 111950Z 18004KT 3000 -SN BR BKN019 00/M00 Q1006 YLO
  • 111920Z 16004KT 3000 -SN BR SCT008 OVC018 00/M00 Q1006 RESN YLO
  • 111841Z 14002KT 1000 SN BR BKN006 00/M00 Q1006 AMB
  • 111820Z 17001KT 2000 SN BKN006 00/M00 Q1006 YLO
  • 111757Z 20004KT 2000 SN BKN010 01/M00 Q1006 YLO

TAF AMD TAF ETHF
Valid from the 11 at 15:00 until the 12 at 00:00 UTC


111537Z 1115/1124 19008KT 9999 NSW SCT020 BKN030
TEMPO 1115/1124 19006KT 3000 RASN FEW005 BKN010 CANCEL 1600



MET'MAP, your aeronautical weather chart ! - Copyright ORBIFLY December 2007 - Disclaimer

ORBIFLY MET'MAP TEAM :

Programming & Development : Alexandra Zaïnal
Concept & original design : Baudouin d'Aumeries
Assistance for programming : Marc-Olivier Méhu
Technical & hardware support : Manuel Goepfert

Contact : metmap@orbifly.com




SOURCES & CREDITS :

   NOAA